sensor_id;sensor_type;location;lat;lon;timestamp;temperature;humidity
4050;DHT22;2039;50.894;6.888;2023-06-22T00:01:11;24.20;1.00
4050;DHT22;2039;50.894;6.888;2023-06-22T00:03:59;24.20;1.00
4050;DHT22;2039;50.894;6.888;2023-06-22T00:06:36;24.20;1.00
4050;DHT22;2039;50.894;6.888;2023-06-22T00:09:19;24.20;1.00
4050;DHT22;2039;50.894;6.888;2023-06-22T00:12:07;24.20;1.00
4050;DHT22;2039;50.894;6.888;2023-06-22T00:15:02;24.20;1.00
4050;DHT22;2039;50.894;6.888;2023-06-22T00:17:32;24.20;1.00
4050;DHT22;2039;50.894;6.888;2023-06-22T00:21:20;24.20;1.00
4050;DHT22;2039;50.894;6.888;2023-06-22T00:30:53;24.20;1.00
4050;DHT22;2039;50.894;6.888;2023-06-22T00:34:14;24.20;1.00
4050;DHT22;2039;50.894;6.888;2023-06-22T00:37:44;24.10;1.00
4050;DHT22;2039;50.894;6.888;2023-06-22T00:46:57;24.10;1.00
4050;DHT22;2039;50.894;6.888;2023-06-22T00:49:32;24.10;1.00
4050;DHT22;2039;50.894;6.888;2023-06-22T00:52:24;24.10;1.00
4050;DHT22;2039;50.894;6.888;2023-06-22T01:04:17;23.90;1.00
4050;DHT22;2039;50.894;6.888;2023-06-22T01:17:19;23.80;1.00
4050;DHT22;2039;50.894;6.888;2023-06-22T01:20:00;23.80;1.00
4050;DHT22;2039;50.894;6.888;2023-06-22T01:26:06;23.70;1.00
4050;DHT22;2039;50.894;6.888;2023-06-22T01:29:53;23.70;1.00
4050;DHT22;2039;50.894;6.888;2023-06-22T01:35:41;23.70;1.00
4050;DHT22;2039;50.894;6.888;2023-06-22T01:38:42;23.70;1.00
4050;DHT22;2039;50.894;6.888;2023-06-22T01:48:06;23.60;1.00
4050;DHT22;2039;50.894;6.888;2023-06-22T01:51:09;23.60;1.00
4050;DHT22;2039;50.894;6.888;2023-06-22T01:54:01;23.60;1.00
4050;DHT22;2039;50.894;6.888;2023-06-22T01:57:05;23.50;1.00
4050;DHT22;2039;50.894;6.888;2023-06-22T01:59:51;23.50;1.00
4050;DHT22;2039;50.894;6.888;2023-06-22T02:06:27;23.50;1.00
4050;DHT22;2039;50.894;6.888;2023-06-22T02:09:57;23.50;1.00
4050;DHT22;2039;50.894;6.888;2023-06-22T02:12:58;23.50;1.00
4050;DHT22;2039;50.894;6.888;2023-06-22T02:16:27;23.50;1.00
4050;DHT22;2039;50.894;6.888;2023-06-22T02:19:09;23.50;1.00
4050;DHT22;2039;50.894;6.888;2023-06-22T02:21:52;23.50;1.00
4050;DHT22;2039;50.894;6.888;2023-06-22T02:28:05;23.50;1.00
4050;DHT22;2039;50.894;6.888;2023-06-22T02:34:31;23.40;1.00
4050;DHT22;2039;50.894;6.888;2023-06-22T02:37:44;23.40;1.00
4050;DHT22;2039;50.894;6.888;2023-06-22T02:40:30;23.50;1.00
4050;DHT22;2039;50.894;6.888;2023-06-22T02:43:47;23.40;1.00
4050;DHT22;2039;50.894;6.888;2023-06-22T02:57:03;23.30;1.00
4050;DHT22;2039;50.894;6.888;2023-06-22T03:00:16;23.30;1.70
4050;DHT22;2039;50.894;6.888;2023-06-22T03:13:33;23.20;3.30
4050;DHT22;2039;50.894;6.888;2023-06-22T03:16:32;23.10;3.40
4050;DHT22;2039;50.894;6.888;2023-06-22T03:21:53;23.20;1.00
4050;DHT22;2039;50.894;6.888;2023-06-22T03:25:16;23.20;1.00
4050;DHT22;2039;50.894;6.888;2023-06-22T03:30:52;23.10;1.00
4050;DHT22;2039;50.894;6.888;2023-06-22T03:33:28;23.10;1.00
4050;DHT22;2039;50.894;6.888;2023-06-22T03:36:04;23.10;1.60
4050;DHT22;2039;50.894;6.888;2023-06-22T03:39:07;23.00;1.70
4050;DHT22;2039;50.894;6.888;2023-06-22T03:47:54;23.00;1.50
4050;DHT22;2039;50.894;6.888;2023-06-22T03:50:20;23.00;2.60
4050;DHT22;2039;50.894;6.888;2023-06-22T03:52:48;23.00;2.30
4050;DHT22;2039;50.894;6.888;2023-06-22T03:55:14;23.00;2.80
4050;DHT22;2039;50.894;6.888;2023-06-22T03:57:39;23.00;4.00
4050;DHT22;2039;50.894;6.888;2023-06-22T04:00:05;23.00;4.90
4050;DHT22;2039;50.894;6.888;2023-06-22T04:02:31;23.00;5.40
4050;DHT22;2039;50.894;6.888;2023-06-22T04:04:57;23.00;7.00
4050;DHT22;2039;50.894;6.888;2023-06-22T04:07:23;23.00;9.50
4050;DHT22;2039;50.894;6.888;2023-06-22T04:09:49;23.00;11.10
4050;DHT22;2039;50.894;6.888;2023-06-22T04:12:14;23.10;8.70
4050;DHT22;2039;50.894;6.888;2023-06-22T04:14:40;23.10;8.30
4050;DHT22;2039;50.894;6.888;2023-06-22T04:17:06;23.10;9.00
4050;DHT22;2039;50.894;6.888;2023-06-22T04:19:31;23.10;9.70
4050;DHT22;2039;50.894;6.888;2023-06-22T04:21:57;23.10;10.80
4050;DHT22;2039;50.894;6.888;2023-06-22T04:24:23;23.10;9.70
4050;DHT22;2039;50.894;6.888;2023-06-22T04:26:48;23.10;10.60
4050;DHT22;2039;50.894;6.888;2023-06-22T04:29:19;23.10;8.20
4050;DHT22;2039;50.894;6.888;2023-06-22T04:31:44;23.10;10.00
4050;DHT22;2039;50.894;6.888;2023-06-22T04:34:10;23.10;12.80
4050;DHT22;2039;50.894;6.888;2023-06-22T04:36:37;23.10;9.40
4050;DHT22;2039;50.894;6.888;2023-06-22T04:39:08;23.10;12.00
4050;DHT22;2039;50.894;6.888;2023-06-22T04:41:36;23.20;13.40
4050;DHT22;2039;50.894;6.888;2023-06-22T04:44:09;23.20;14.00
4050;DHT22;2039;50.894;6.888;2023-06-22T04:46:36;23.20;14.40
4050;DHT22;2039;50.894;6.888;2023-06-22T04:49:07;23.20;13.60
4050;DHT22;2039;50.894;6.888;2023-06-22T04:51:38;23.20;16.60
4050;DHT22;2039;50.894;6.888;2023-06-22T04:54:03;23.10;16.70
4050;DHT22;2039;50.894;6.888;2023-06-22T04:56:31;23.10;17.20
4050;DHT22;2039;50.894;6.888;2023-06-22T04:58:57;23.10;17.80
4050;DHT22;2039;50.894;6.888;2023-06-22T05:01:23;23.00;20.30
4050;DHT22;2039;50.894;6.888;2023-06-22T05:03:49;23.10;17.90
4050;DHT22;2039;50.894;6.888;2023-06-22T05:06:15;23.00;17.40
4050;DHT22;2039;50.894;6.888;2023-06-22T05:08:41;23.10;17.50
4050;DHT22;2039;50.894;6.888;2023-06-22T05:11:07;23.10;15.80
4050;DHT22;2039;50.894;6.888;2023-06-22T05:13:33;23.10;16.70
4050;DHT22;2039;50.894;6.888;2023-06-22T05:15:58;23.10;15.70
4050;DHT22;2039;50.894;6.888;2023-06-22T05:18:31;23.20;16.20
4050;DHT22;2039;50.894;6.888;2023-06-22T05:20:58;23.20;15.50
4050;DHT22;2039;50.894;6.888;2023-06-22T05:23:24;23.20;16.20
4050;DHT22;2039;50.894;6.888;2023-06-22T05:25:50;23.30;16.40
4050;DHT22;2039;50.894;6.888;2023-06-22T05:28:16;23.30;15.00
4050;DHT22;2039;50.894;6.888;2023-06-22T05:30:41;23.30;14.30
4050;DHT22;2039;50.894;6.888;2023-06-22T05:33:07;23.40;15.10
4050;DHT22;2039;50.894;6.888;2023-06-22T05:35:33;23.40;15.40
4050;DHT22;2039;50.894;6.888;2023-06-22T05:37:58;23.50;16.60
4050;DHT22;2039;50.894;6.888;2023-06-22T05:40:24;23.60;21.30
4050;DHT22;2039;50.894;6.888;2023-06-22T05:42:49;23.50;23.20
4050;DHT22;2039;50.894;6.888;2023-06-22T05:45:15;23.50;25.00
4050;DHT22;2039;50.894;6.888;2023-06-22T05:47:41;23.50;25.30
4050;DHT22;2039;50.894;6.888;2023-06-22T05:50:07;23.60;24.50
4050;DHT22;2039;50.894;6.888;2023-06-22T05:52:34;23.40;33.40
4050;DHT22;2039;50.894;6.888;2023-06-22T05:55:01;23.40;31.90
4050;DHT22;2039;50.894;6.888;2023-06-22T05:57:27;23.70;31.60
4050;DHT22;2039;50.894;6.888;2023-06-22T05:59:53;23.80;27.00
4050;DHT22;2039;50.894;6.888;2023-06-22T06:02:19;23.90;28.30
4050;DHT22;2039;50.894;6.888;2023-06-22T06:04:45;23.60;31.70
4050;DHT22;2039;50.894;6.888;2023-06-22T06:07:11;23.50;35.70
4050;DHT22;2039;50.894;6.888;2023-06-22T06:09:36;23.50;38.50
4050;DHT22;2039;50.894;6.888;2023-06-22T06:12:02;23.40;42.30
4050;DHT22;2039;50.894;6.888;2023-06-22T06:14:28;23.70;34.20
4050;DHT22;2039;50.894;6.888;2023-06-22T06:16:54;23.80;37.40
4050;DHT22;2039;50.894;6.888;2023-06-22T06:19:20;23.80;35.90
4050;DHT22;2039;50.894;6.888;2023-06-22T06:21:45;24.00;28.10
4050;DHT22;2039;50.894;6.888;2023-06-22T06:24:12;24.00;32.40
4050;DHT22;2039;50.894;6.888;2023-06-22T06:26:37;24.10;35.60
4050;DHT22;2039;50.894;6.888;2023-06-22T06:29:03;24.30;35.00
4050;DHT22;2039;50.894;6.888;2023-06-22T06:31:29;24.40;37.70
4050;DHT22;2039;50.894;6.888;2023-06-22T06:33:55;24.60;30.40
4050;DHT22;2039;50.894;6.888;2023-06-22T06:36:21;24.70;27.80
4050;DHT22;2039;50.894;6.888;2023-06-22T06:38:50;24.70;23.70
4050;DHT22;2039;50.894;6.888;2023-06-22T06:41:16;24.80;23.80
4050;DHT22;2039;50.894;6.888;2023-06-22T06:43:42;25.00;22.50
4050;DHT22;2039;50.894;6.888;2023-06-22T06:46:09;25.00;15.50
4050;DHT22;2039;50.894;6.888;2023-06-22T06:48:35;25.10;14.40
4050;DHT22;2039;50.894;6.888;2023-06-22T06:51:01;24.80;17.70
4050;DHT22;2039;50.894;6.888;2023-06-22T06:53:27;24.80;22.40
4050;DHT22;2039;50.894;6.888;2023-06-22T06:55:54;24.90;15.90
4050;DHT22;2039;50.894;6.888;2023-06-22T06:58:20;25.00;14.50
4050;DHT22;2039;50.894;6.888;2023-06-22T07:00:45;24.90;22.80
4050;DHT22;2039;50.894;6.888;2023-06-22T07:03:11;24.80;22.70
4050;DHT22;2039;50.894;6.888;2023-06-22T07:05:37;24.60;24.80
4050;DHT22;2039;50.894;6.888;2023-06-22T07:08:02;24.80;23.90
4050;DHT22;2039;50.894;6.888;2023-06-22T07:10:31;24.90;23.70
4050;DHT22;2039;50.894;6.888;2023-06-22T07:13:00;25.10;27.00
4050;DHT22;2039;50.894;6.888;2023-06-22T07:15:27;25.20;20.60
4050;DHT22;2039;50.894;6.888;2023-06-22T07:17:52;25.30;21.20
4050;DHT22;2039;50.894;6.888;2023-06-22T07:20:18;25.10;19.20
4050;DHT22;2039;50.894;6.888;2023-06-22T07:22:45;25.20;17.80
4050;DHT22;2039;50.894;6.888;2023-06-22T07:25:11;25.40;14.50
4050;DHT22;2039;50.894;6.888;2023-06-22T07:27:43;25.40;17.70
4050;DHT22;2039;50.894;6.888;2023-06-22T07:30:11;25.30;15.10
4050;DHT22;2039;50.894;6.888;2023-06-22T07:32:36;25.30;16.00
4050;DHT22;2039;50.894;6.888;2023-06-22T07:35:03;25.40;9.80
4050;DHT22;2039;50.894;6.888;2023-06-22T07:37:30;25.30;8.20
4050;DHT22;2039;50.894;6.888;2023-06-22T07:39:56;25.20;12.90
4050;DHT22;2039;50.894;6.888;2023-06-22T07:42:25;25.40;13.20
4050;DHT22;2039;50.894;6.888;2023-06-22T07:44:51;25.40;11.90
4050;DHT22;2039;50.894;6.888;2023-06-22T07:47:17;25.40;16.40
4050;DHT22;2039;50.894;6.888;2023-06-22T07:49:47;25.50;11.70
4050;DHT22;2039;50.894;6.888;2023-06-22T07:52:12;25.60;11.80
4050;DHT22;2039;50.894;6.888;2023-06-22T07:54:38;25.50;10.80
4050;DHT22;2039;50.894;6.888;2023-06-22T07:57:04;25.60;7.40
4050;DHT22;2039;50.894;6.888;2023-06-22T07:59:30;25.50;7.30
4050;DHT22;2039;50.894;6.888;2023-06-22T08:01:55;25.60;5.60
4050;DHT22;2039;50.894;6.888;2023-06-22T08:04:21;25.60;2.40
4050;DHT22;2039;50.894;6.888;2023-06-22T08:06:47;25.70;2.60
4050;DHT22;2039;50.894;6.888;2023-06-22T08:09:12;25.70;5.00
4050;DHT22;2039;50.894;6.888;2023-06-22T08:11:38;25.60;1.00
4050;DHT22;2039;50.894;6.888;2023-06-22T08:14:04;25.60;1.00
4050;DHT22;2039;50.894;6.888;2023-06-22T08:16:29;25.60;5.70
4050;DHT22;2039;50.894;6.888;2023-06-22T08:18:55;25.60;4.20
4050;DHT22;2039;50.894;6.888;2023-06-22T08:21:21;25.70;2.70
4050;DHT22;2039;50.894;6.888;2023-06-22T08:23:50;25.80;2.60
4050;DHT22;2039;50.894;6.888;2023-06-22T08:26:16;25.90;1.00
4050;DHT22;2039;50.894;6.888;2023-06-22T08:28:41;25.90;1.00
4050;DHT22;2039;50.894;6.888;2023-06-22T08:31:07;25.80;1.00
4050;DHT22;2039;50.894;6.888;2023-06-22T08:33:33;25.70;1.00
4050;DHT22;2039;50.894;6.888;2023-06-22T08:35:59;25.80;1.00
4050;DHT22;2039;50.894;6.888;2023-06-22T08:38:26;26.00;1.00
4050;DHT22;2039;50.894;6.888;2023-06-22T08:40:54;26.10;1.00
4050;DHT22;2039;50.894;6.888;2023-06-22T08:43:20;26.30;1.00
4050;DHT22;2039;50.894;6.888;2023-06-22T08:45:46;26.50;1.00
4050;DHT22;2039;50.894;6.888;2023-06-22T08:48:12;26.60;1.00
4050;DHT22;2039;50.894;6.888;2023-06-22T08:50:37;26.60;1.00
4050;DHT22;2039;50.894;6.888;2023-06-22T08:53:03;26.80;1.00
4050;DHT22;2039;50.894;6.888;2023-06-22T08:55:29;26.70;1.00
4050;DHT22;2039;50.894;6.888;2023-06-22T08:57:54;26.50;1.00
4050;DHT22;2039;50.894;6.888;2023-06-22T09:00:20;26.40;1.00
4050;DHT22;2039;50.894;6.888;2023-06-22T09:02:47;26.40;1.00
4050;DHT22;2039;50.894;6.888;2023-06-22T09:05:13;26.40;1.00
4050;DHT22;2039;50.894;6.888;2023-06-22T09:07:39;26.50;1.00
4050;DHT22;2039;50.894;6.888;2023-06-22T09:10:08;26.60;1.00
4050;DHT22;2039;50.894;6.888;2023-06-22T09:12:34;26.70;1.00
4050;DHT22;2039;50.894;6.888;2023-06-22T09:15:02;26.80;1.00
4050;DHT22;2039;50.894;6.888;2023-06-22T09:17:28;26.80;1.00
4050;DHT22;2039;50.894;6.888;2023-06-22T09:19:54;27.00;1.00
4050;DHT22;2039;50.894;6.888;2023-06-22T09:22:20;26.80;1.00
4050;DHT22;2039;50.894;6.888;2023-06-22T09:24:48;26.90;1.00
4050;DHT22;2039;50.894;6.888;2023-06-22T09:27:14;27.00;1.00
4050;DHT22;2039;50.894;6.888;2023-06-22T09:29:40;26.90;1.00
4050;DHT22;2039;50.894;6.888;2023-06-22T09:32:06;26.70;1.00
4050;DHT22;2039;50.894;6.888;2023-06-22T09:34:32;26.80;1.00
4050;DHT22;2039;50.894;6.888;2023-06-22T09:36:57;27.20;1.00
4050;DHT22;2039;50.894;6.888;2023-06-22T09:39:25;27.50;1.00
4050;DHT22;2039;50.894;6.888;2023-06-22T09:41:51;27.60;1.00
4050;DHT22;2039;50.894;6.888;2023-06-22T09:44:17;27.90;1.00
4050;DHT22;2039;50.894;6.888;2023-06-22T09:46:42;27.70;1.00
4050;DHT22;2039;50.894;6.888;2023-06-22T09:49:08;27.80;1.00
4050;DHT22;2039;50.894;6.888;2023-06-22T09:51:34;28.10;1.00
4050;DHT22;2039;50.894;6.888;2023-06-22T09:53:59;28.10;1.00
4050;DHT22;2039;50.894;6.888;2023-06-22T09:56:25;28.20;1.00
4050;DHT22;2039;50.894;6.888;2023-06-22T09:58:53;28.10;1.00
4050;DHT22;2039;50.894;6.888;2023-06-22T10:01:19;27.80;1.00
4050;DHT22;2039;50.894;6.888;2023-06-22T10:03:46;27.70;1.00
4050;DHT22;2039;50.894;6.888;2023-06-22T10:06:12;27.50;1.00
4050;DHT22;2039;50.894;6.888;2023-06-22T10:08:37;27.40;1.00
4050;DHT22;2039;50.894;6.888;2023-06-22T10:11:04;27.20;1.00
4050;DHT22;2039;50.894;6.888;2023-06-22T10:13:30;27.10;1.00
4050;DHT22;2039;50.894;6.888;2023-06-22T10:15:56;27.10;1.00
4050;DHT22;2039;50.894;6.888;2023-06-22T10:18:22;27.00;1.00
4050;DHT22;2039;50.894;6.888;2023-06-22T10:20:48;26.90;1.00
4050;DHT22;2039;50.894;6.888;2023-06-22T10:23:17;26.70;19.70
4050;DHT22;2039;50.894;6.888;2023-06-22T10:25:42;26.50;22.80
4050;DHT22;2039;50.894;6.888;2023-06-22T10:28:08;26.50;42.00
4050;DHT22;2039;50.894;6.888;2023-06-22T10:30:34;26.40;55.50
4050;DHT22;2039;50.894;6.888;2023-06-22T10:32:59;26.30;67.60
4050;DHT22;2039;50.894;6.888;2023-06-22T10:35:25;26.20;76.10
4050;DHT22;2039;50.894;6.888;2023-06-22T10:37:50;26.10;83.70
4050;DHT22;2039;50.894;6.888;2023-06-22T10:40:17;26.00;97.90
4050;DHT22;2039;50.894;6.888;2023-06-22T10:42:44;25.90;99.90
4050;DHT22;2039;50.894;6.888;2023-06-22T10:45:10;25.80;99.90
4050;DHT22;2039;50.894;6.888;2023-06-22T10:47:36;25.70;99.90
4050;DHT22;2039;50.894;6.888;2023-06-22T10:50:03;25.60;99.90
4050;DHT22;2039;50.894;6.888;2023-06-22T10:52:29;25.50;99.90
4050;DHT22;2039;50.894;6.888;2023-06-22T10:54:54;25.40;99.90
4050;DHT22;2039;50.894;6.888;2023-06-22T10:57:21;25.40;99.90
4050;DHT22;2039;50.894;6.888;2023-06-22T10:59:47;25.30;99.90
4050;DHT22;2039;50.894;6.888;2023-06-22T11:02:13;25.10;99.90
4050;DHT22;2039;50.894;6.888;2023-06-22T11:04:38;25.00;99.90
4050;DHT22;2039;50.894;6.888;2023-06-22T11:07:04;24.80;99.90
4050;DHT22;2039;50.894;6.888;2023-06-22T11:09:30;24.70;99.90
4050;DHT22;2039;50.894;6.888;2023-06-22T11:11:57;24.60;99.90
4050;DHT22;2039;50.894;6.888;2023-06-22T11:14:31;24.60;99.90
4050;DHT22;2039;50.894;6.888;2023-06-22T11:17:23;24.40;99.90
4050;DHT22;2039;50.894;6.888;2023-06-22T11:19:50;24.40;99.90
4050;DHT22;2039;50.894;6.888;2023-06-22T11:22:15;24.60;99.90
4050;DHT22;2039;50.894;6.888;2023-06-22T11:24:53;24.70;99.90
4050;DHT22;2039;50.894;6.888;2023-06-22T11:27:19;24.90;99.90
4050;DHT22;2039;50.894;6.888;2023-06-22T11:29:45;24.90;99.90
4050;DHT22;2039;50.894;6.888;2023-06-22T11:32:10;25.00;99.90
4050;DHT22;2039;50.894;6.888;2023-06-22T11:34:36;25.00;99.90
4050;DHT22;2039;50.894;6.888;2023-06-22T11:37:01;24.90;99.90
4050;DHT22;2039;50.894;6.888;2023-06-22T11:39:28;25.00;99.90
4050;DHT22;2039;50.894;6.888;2023-06-22T11:41:53;25.00;99.90
4050;DHT22;2039;50.894;6.888;2023-06-22T11:44:19;24.80;99.90
4050;DHT22;2039;50.894;6.888;2023-06-22T11:46:44;24.80;99.90
4050;DHT22;2039;50.894;6.888;2023-06-22T11:49:10;24.80;99.90
4050;DHT22;2039;50.894;6.888;2023-06-22T11:51:39;24.90;99.90
4050;DHT22;2039;50.894;6.888;2023-06-22T11:54:07;25.10;99.90
4050;DHT22;2039;50.894;6.888;2023-06-22T11:56:33;25.30;99.90
4050;DHT22;2039;50.894;6.888;2023-06-22T11:58:59;25.60;99.90
4050;DHT22;2039;50.894;6.888;2023-06-22T12:01:24;25.90;99.90
4050;DHT22;2039;50.894;6.888;2023-06-22T12:03:50;25.90;99.90
4050;DHT22;2039;50.894;6.888;2023-06-22T12:06:17;26.00;99.90
4050;DHT22;2039;50.894;6.888;2023-06-22T12:08:42;26.40;99.90
4050;DHT22;2039;50.894;6.888;2023-06-22T12:11:08;26.60;99.90
4050;DHT22;2039;50.894;6.888;2023-06-22T12:13:39;26.30;99.90
4050;DHT22;2039;50.894;6.888;2023-06-22T12:16:05;26.30;99.90
4050;DHT22;2039;50.894;6.888;2023-06-22T12:18:32;26.50;99.90
4050;DHT22;2039;50.894;6.888;2023-06-22T12:20:57;26.40;99.90
4050;DHT22;2039;50.894;6.888;2023-06-22T12:23:23;26.40;99.90
4050;DHT22;2039;50.894;6.888;2023-06-22T12:25:49;26.40;99.90
4050;DHT22;2039;50.894;6.888;2023-06-22T12:28:14;26.30;99.90
4050;DHT22;2039;50.894;6.888;2023-06-22T12:30:40;26.40;99.90
4050;DHT22;2039;50.894;6.888;2023-06-22T12:33:06;26.60;99.90
4050;DHT22;2039;50.894;6.888;2023-06-22T12:35:31;26.80;99.90
4050;DHT22;2039;50.894;6.888;2023-06-22T12:37:57;27.00;99.90
4050;DHT22;2039;50.894;6.888;2023-06-22T12:40:23;27.40;99.90
4050;DHT22;2039;50.894;6.888;2023-06-22T12:42:54;27.40;99.90
4050;DHT22;2039;50.894;6.888;2023-06-22T12:45:40;27.40;99.90
4050;DHT22;2039;50.894;6.888;2023-06-22T12:48:09;27.40;99.90
4050;DHT22;2039;50.894;6.888;2023-06-22T12:50:35;27.10;99.90
4050;DHT22;2039;50.894;6.888;2023-06-22T12:53:00;26.80;99.90
4050;DHT22;2039;50.894;6.888;2023-06-22T12:55:28;26.80;99.90
4050;DHT22;2039;50.894;6.888;2023-06-22T13:01:11;27.00;99.90
4050;DHT22;2039;50.894;6.888;2023-06-22T13:03:47;27.10;99.90
4050;DHT22;2039;50.894;6.888;2023-06-22T13:06:35;27.30;96.50
4050;DHT22;2039;50.894;6.888;2023-06-22T13:09:00;27.60;91.60
4050;DHT22;2039;50.894;6.888;2023-06-22T13:11:34;28.00;88.40
4050;DHT22;2039;50.894;6.888;2023-06-22T13:14:00;28.10;69.90
4050;DHT22;2039;50.894;6.888;2023-06-22T13:16:25;28.00;89.90
4050;DHT22;2039;50.894;6.888;2023-06-22T13:18:51;27.80;77.80
4050;DHT22;2039;50.894;6.888;2023-06-22T13:21:19;27.90;88.60
4050;DHT22;2039;50.894;6.888;2023-06-22T13:23:45;28.10;77.80
4050;DHT22;2039;50.894;6.888;2023-06-22T13:26:11;28.40;80.30
4050;DHT22;2039;50.894;6.888;2023-06-22T13:28:36;28.20;66.10
4050;DHT22;2039;50.894;6.888;2023-06-22T13:31:02;28.30;62.90
4050;DHT22;2039;50.894;6.888;2023-06-22T13:33:28;28.40;48.40
4050;DHT22;2039;50.894;6.888;2023-06-22T13:35:53;28.60;53.00
4050;DHT22;2039;50.894;6.888;2023-06-22T13:38:19;28.80;43.10
4050;DHT22;2039;50.894;6.888;2023-06-22T13:40:45;28.80;29.90
4050;DHT22;2039;50.894;6.888;2023-06-22T13:43:11;28.70;39.40
4050;DHT22;2039;50.894;6.888;2023-06-22T13:45:36;28.80;39.30
4050;DHT22;2039;50.894;6.888;2023-06-22T13:48:02;29.00;24.60
4050;DHT22;2039;50.894;6.888;2023-06-22T13:50:28;28.70;25.80
4050;DHT22;2039;50.894;6.888;2023-06-22T13:52:55;28.40;27.30
4050;DHT22;2039;50.894;6.888;2023-06-22T13:55:22;28.50;36.50
4050;DHT22;2039;50.894;6.888;2023-06-22T13:57:48;28.70;32.30
4050;DHT22;2039;50.894;6.888;2023-06-22T14:00:14;28.80;24.60
4050;DHT22;2039;50.894;6.888;2023-06-22T14:02:40;28.60;25.30
4050;DHT22;2039;50.894;6.888;2023-06-22T14:05:09;28.40;18.50
4050;DHT22;2039;50.894;6.888;2023-06-22T14:07:36;28.50;14.10
4050;DHT22;2039;50.894;6.888;2023-06-22T14:10:06;28.50;15.20
4050;DHT22;2039;50.894;6.888;2023-06-22T14:12:31;28.70;6.20
4050;DHT22;2039;50.894;6.888;2023-06-22T14:14:57;28.90;7.40
4050;DHT22;2039;50.894;6.888;2023-06-22T14:19:51;28.50;15.20
4050;DHT22;2039;50.894;6.888;2023-06-22T14:22:21;27.80;25.10
4050;DHT22;2039;50.894;6.888;2023-06-22T14:24:47;27.60;21.80
4050;DHT22;2039;50.894;6.888;2023-06-22T14:27:14;27.50;19.50
4050;DHT22;2039;50.894;6.888;2023-06-22T14:29:40;27.50;25.90
4050;DHT22;2039;50.894;6.888;2023-06-22T14:32:06;27.50;25.70
4050;DHT22;2039;50.894;6.888;2023-06-22T14:34:32;27.40;25.90
4050;DHT22;2039;50.894;6.888;2023-06-22T14:37:01;27.50;27.10
4050;DHT22;2039;50.894;6.888;2023-06-22T14:39:27;27.40;26.30
4050;DHT22;2039;50.894;6.888;2023-06-22T14:41:53;27.50;29.80
4050;DHT22;2039;50.894;6.888;2023-06-22T14:44:19;27.50;35.40
4050;DHT22;2039;50.894;6.888;2023-06-22T14:46:44;27.50;29.20
4050;DHT22;2039;50.894;6.888;2023-06-22T14:49:10;27.50;34.70
4050;DHT22;2039;50.894;6.888;2023-06-22T14:51:37;27.50;26.20
4050;DHT22;2039;50.894;6.888;2023-06-22T14:54:03;27.50;31.10
4050;DHT22;2039;50.894;6.888;2023-06-22T14:56:28;27.40;32.10
4050;DHT22;2039;50.894;6.888;2023-06-22T14:58:55;27.30;42.50
4050;DHT22;2039;50.894;6.888;2023-06-22T15:01:20;27.10;53.60
4050;DHT22;2039;50.894;6.888;2023-06-22T15:03:46;26.50;92.60
4050;DHT22;2039;50.894;6.888;2023-06-22T15:06:12;26.10;96.10
4050;DHT22;2039;50.894;6.888;2023-06-22T15:08:42;25.90;99.90
4050;DHT22;2039;50.894;6.888;2023-06-22T15:11:08;25.60;99.90
4050;DHT22;2039;50.894;6.888;2023-06-22T15:13:34;25.30;99.90
4050;DHT22;2039;50.894;6.888;2023-06-22T15:16:01;25.20;99.90
4050;DHT22;2039;50.894;6.888;2023-06-22T15:18:29;24.90;99.90
4050;DHT22;2039;50.894;6.888;2023-06-22T15:20:54;24.50;99.90
4050;DHT22;2039;50.894;6.888;2023-06-22T15:23:20;24.50;99.90
4050;DHT22;2039;50.894;6.888;2023-06-22T15:25:46;24.50;99.90
4050;DHT22;2039;50.894;6.888;2023-06-22T15:28:12;24.40;99.90
4050;DHT22;2039;50.894;6.888;2023-06-22T15:30:38;24.40;99.90
4050;DHT22;2039;50.894;6.888;2023-06-22T15:33:06;24.60;99.90
4050;DHT22;2039;50.894;6.888;2023-06-22T15:35:32;24.30;99.90
4050;DHT22;2039;50.894;6.888;2023-06-22T15:37:58;23.80;99.90
4050;DHT22;2039;50.894;6.888;2023-06-22T15:40:24;23.60;99.90
4050;DHT22;2039;50.894;6.888;2023-06-22T15:42:50;23.40;99.90
4050;DHT22;2039;50.894;6.888;2023-06-22T15:45:16;23.50;99.90
4050;DHT22;2039;50.894;6.888;2023-06-22T15:47:45;23.50;99.90
4050;DHT22;2039;50.894;6.888;2023-06-22T15:50:31;23.30;99.90
4050;DHT22;2039;50.894;6.888;2023-06-22T15:53:26;23.40;99.90
4050;DHT22;2039;50.894;6.888;2023-06-22T15:56:24;23.40;99.90
4050;DHT22;2039;50.894;6.888;2023-06-22T15:59:07;23.20;99.90
4050;DHT22;2039;50.894;6.888;2023-06-22T16:01:38;23.20;99.90
4050;DHT22;2039;50.894;6.888;2023-06-22T16:04:18;23.20;99.90
4050;DHT22;2039;50.894;6.888;2023-06-22T16:06:53;23.20;99.90
4050;DHT22;2039;50.894;6.888;2023-06-22T16:09:24;23.30;99.90
4050;DHT22;2039;50.894;6.888;2023-06-22T16:12:03;23.30;99.90
4050;DHT22;2039;50.894;6.888;2023-06-22T16:14:39;23.20;99.90
4050;DHT22;2039;50.894;6.888;2023-06-22T16:17:10;23.10;99.90
4050;DHT22;2039;50.894;6.888;2023-06-22T16:19:45;22.90;99.90
4050;DHT22;2039;50.894;6.888;2023-06-22T16:22:14;22.90;99.90
4050;DHT22;2039;50.894;6.888;2023-06-22T16:24:45;23.00;99.90
4050;DHT22;2039;50.894;6.888;2023-06-22T16:27:17;23.00;99.90
4050;DHT22;2039;50.894;6.888;2023-06-22T16:29:59;23.00;99.90
4050;DHT22;2039;50.894;6.888;2023-06-22T16:32:57;23.00;99.90
4050;DHT22;2039;50.894;6.888;2023-06-22T16:36:00;23.10;99.90
4050;DHT22;2039;50.894;6.888;2023-06-22T16:38:26;23.10;99.90
4050;DHT22;2039;50.894;6.888;2023-06-22T16:40:55;23.20;99.90
4050;DHT22;2039;50.894;6.888;2023-06-22T16:43:44;23.40;99.90
4050;DHT22;2039;50.894;6.888;2023-06-22T16:46:19;23.60;99.90
4050;DHT22;2039;50.894;6.888;2023-06-22T16:48:54;23.60;99.90
4050;DHT22;2039;50.894;6.888;2023-06-22T16:51:19;23.70;99.90
4050;DHT22;2039;50.894;6.888;2023-06-22T16:53:46;23.70;99.90
4050;DHT22;2039;50.894;6.888;2023-06-22T16:56:26;23.80;99.90
4050;DHT22;2039;50.894;6.888;2023-06-22T16:58:54;23.80;99.90
4050;DHT22;2039;50.894;6.888;2023-06-22T17:01:29;23.90;99.90
4050;DHT22;2039;50.894;6.888;2023-06-22T17:04:11;24.00;99.90
4050;DHT22;2039;50.894;6.888;2023-06-22T17:06:42;24.20;99.90
4050;DHT22;2039;50.894;6.888;2023-06-22T17:09:13;24.10;99.90
4050;DHT22;2039;50.894;6.888;2023-06-22T17:11:42;24.10;99.90
4050;DHT22;2039;50.894;6.888;2023-06-22T17:14:11;24.20;99.90
4050;DHT22;2039;50.894;6.888;2023-06-22T17:16:42;24.20;99.90
4050;DHT22;2039;50.894;6.888;2023-06-22T17:19:15;24.30;99.90
4050;DHT22;2039;50.894;6.888;2023-06-22T17:21:42;24.40;99.90
4050;DHT22;2039;50.894;6.888;2023-06-22T17:24:11;24.50;99.90
4050;DHT22;2039;50.894;6.888;2023-06-22T17:26:52;24.60;99.90
4050;DHT22;2039;50.894;6.888;2023-06-22T17:29:23;24.60;99.90
4050;DHT22;2039;50.894;6.888;2023-06-22T17:31:55;24.70;99.90
4050;DHT22;2039;50.894;6.888;2023-06-22T17:34:27;24.70;99.90
4050;DHT22;2039;50.894;6.888;2023-06-22T17:36:58;24.60;99.90
4050;DHT22;2039;50.894;6.888;2023-06-22T17:39:53;24.40;99.90
4050;DHT22;2039;50.894;6.888;2023-06-22T17:42:25;24.30;99.90
4050;DHT22;2039;50.894;6.888;2023-06-22T17:44:51;24.00;99.90
4050;DHT22;2039;50.894;6.888;2023-06-22T17:47:48;23.80;99.90
4050;DHT22;2039;50.894;6.888;2023-06-22T17:50:15;23.60;99.90
4050;DHT22;2039;50.894;6.888;2023-06-22T17:52:54;23.50;99.90
4050;DHT22;2039;50.894;6.888;2023-06-22T17:55:24;23.40;99.90
4050;DHT22;2039;50.894;6.888;2023-06-22T17:58:04;23.40;99.90
4050;DHT22;2039;50.894;6.888;2023-06-22T18:00:33;23.30;99.90
4050;DHT22;2039;50.894;6.888;2023-06-22T18:03:01;23.10;99.90
4050;DHT22;2039;50.894;6.888;2023-06-22T18:05:33;23.00;99.90
4050;DHT22;2039;50.894;6.888;2023-06-22T18:08:06;22.90;99.90